sensor_id;sensor_type;location;lat;lon;timestamp;P1;durP1;ratioP1;P2;durP2;ratioP2
9459;SDS011;4768;42.664;23.240;2022-11-21T00:00:21;0.00;;;0.00;;
9459;SDS011;4768;42.664;23.240;2022-11-21T00:02:48;0.00;;;0.00;;
9459;SDS011;4768;42.664;23.240;2022-11-21T00:05:15;0.00;;;0.00;;
9459;SDS011;4768;42.664;23.240;2022-11-21T00:07:42;0.10;;;0.10;;
9459;SDS011;4768;42.664;23.240;2022-11-21T00:10:10;1.07;;;0.77;;
9459;SDS011;4768;42.664;23.240;2022-11-21T00:12:36;0.10;;;0.10;;
9459;SDS011;4768;42.664;23.240;2022-11-21T00:15:05;0.20;;;0.20;;
9459;SDS011;4768;42.664;23.240;2022-11-21T00:17:32;0.20;;;0.07;;
9459;SDS011;4768;42.664;23.240;2022-11-21T00:19:59;0.00;;;0.00;;
9459;SDS011;4768;42.664;23.240;2022-11-21T00:22:25;0.10;;;0.10;;
9459;SDS011;4768;42.664;23.240;2022-11-21T00:24:52;0.00;;;0.00;;
9459;SDS011;4768;42.664;23.240;2022-11-21T00:27:19;0.20;;;0.20;;
9459;SDS011;4768;42.664;23.240;2022-11-21T00:29:46;0.10;;;0.10;;
9459;SDS011;4768;42.664;23.240;2022-11-21T00:32:14;0.10;;;0.10;;
9459;SDS011;4768;42.664;23.240;2022-11-21T00:34:40;0.00;;;0.00;;
9459;SDS011;4768;42.664;23.240;2022-11-21T00:37:07;0.00;;;0.00;;
9459;SDS011;4768;42.664;23.240;2022-11-21T00:39:34;0.03;;;0.03;;
9459;SDS011;4768;42.664;23.240;2022-11-21T00:42:00;0.00;;;0.00;;
9459;SDS011;4768;42.664;23.240;2022-11-21T00:44:27;0.03;;;0.03;;
9459;SDS011;4768;42.664;23.240;2022-11-21T00:46:54;0.17;;;0.10;;
9459;SDS011;4768;42.664;23.240;2022-11-21T00:49:22;0.10;;;0.10;;
9459;SDS011;4768;42.664;23.240;2022-11-21T00:51:48;0.30;;;0.30;;
9459;SDS011;4768;42.664;23.240;2022-11-21T00:54:15;0.50;;;0.40;;
9459;SDS011;4768;42.664;23.240;2022-11-21T00:56:42;0.07;;;0.07;;
9459;SDS011;4768;42.664;23.240;2022-11-21T00:59:09;0.33;;;0.10;;
9459;SDS011;4768;42.664;23.240;2022-11-21T01:01:35;0.03;;;0.03;;
9459;SDS011;4768;42.664;23.240;2022-11-21T01:04:02;0.00;;;0.00;;
9459;SDS011;4768;42.664;23.240;2022-11-21T01:06:31;0.57;;;0.57;;
9459;SDS011;4768;42.664;23.240;2022-11-21T01:08:58;0.00;;;0.00;;
9459;SDS011;4768;42.664;23.240;2022-11-21T01:11:24;0.13;;;0.13;;
9459;SDS011;4768;42.664;23.240;2022-11-21T01:13:51;0.27;;;0.03;;
9459;SDS011;4768;42.664;23.240;2022-11-21T01:16:20;0.00;;;0.00;;
9459;SDS011;4768;42.664;23.240;2022-11-21T01:18:49;1.93;;;0.20;;
9459;SDS011;4768;42.664;23.240;2022-11-21T01:21:16;0.00;;;0.00;;
9459;SDS011;4768;42.664;23.240;2022-11-21T01:23:46;0.50;;;0.30;;
9459;SDS011;4768;42.664;23.240;2022-11-21T01:26:14;0.00;;;0.00;;
9459;SDS011;4768;42.664;23.240;2022-11-21T01:28:43;0.67;;;0.30;;
9459;SDS011;4768;42.664;23.240;2022-11-21T01:31:11;0.00;;;0.00;;
9459;SDS011;4768;42.664;23.240;2022-11-21T01:33:39;0.20;;;0.00;;
9459;SDS011;4768;42.664;23.240;2022-11-21T01:36:08;0.00;;;0.00;;
9459;SDS011;4768;42.664;23.240;2022-11-21T01:38:35;0.30;;;0.30;;
9459;SDS011;4768;42.664;23.240;2022-11-21T01:41:04;0.10;;;0.10;;
9459;SDS011;4768;42.664;23.240;2022-11-21T01:43:31;0.00;;;0.00;;
9459;SDS011;4768;42.664;23.240;2022-11-21T01:45:59;0.00;;;0.00;;
9459;SDS011;4768;42.664;23.240;2022-11-21T01:48:31;0.20;;;0.10;;
9459;SDS011;4768;42.664;23.240;2022-11-21T01:51:02;0.00;;;0.00;;
9459;SDS011;4768;42.664;23.240;2022-11-21T01:53:34;0.30;;;0.20;;
9459;SDS011;4768;42.664;23.240;2022-11-21T01:56:02;0.10;;;0.10;;
9459;SDS011;4768;42.664;23.240;2022-11-21T01:58:31;0.00;;;0.00;;
9459;SDS011;4768;42.664;23.240;2022-11-21T02:01:00;0.10;;;0.10;;
9459;SDS011;4768;42.664;23.240;2022-11-21T02:03:28;0.20;;;0.20;;
9459;SDS011;4768;42.664;23.240;2022-11-21T02:05:59;0.20;;;0.20;;
9459;SDS011;4768;42.664;23.240;2022-11-21T02:08:26;0.30;;;0.30;;
9459;SDS011;4768;42.664;23.240;2022-11-21T02:10:56;0.77;;;0.70;;
9459;SDS011;4768;42.664;23.240;2022-11-21T02:13:33;0.00;;;0.00;;
9459;SDS011;4768;42.664;23.240;2022-11-21T02:16:00;0.00;;;0.00;;
9459;SDS011;4768;42.664;23.240;2022-11-21T02:18:27;0.00;;;0.00;;
9459;SDS011;4768;42.664;23.240;2022-11-21T02:20:56;0.00;;;0.00;;
9459;SDS011;4768;42.664;23.240;2022-11-21T02:23:28;0.00;;;0.00;;
9459;SDS011;4768;42.664;23.240;2022-11-21T02:26:04;0.10;;;0.10;;
9459;SDS011;4768;42.664;23.240;2022-11-21T02:28:30;0.00;;;0.00;;
9459;SDS011;4768;42.664;23.240;2022-11-21T02:30:57;0.00;;;0.00;;
9459;SDS011;4768;42.664;23.240;2022-11-21T02:33:24;0.20;;;0.20;;
9459;SDS011;4768;42.664;23.240;2022-11-21T02:35:57;0.07;;;0.07;;
9459;SDS011;4768;42.664;23.240;2022-11-21T02:38:26;0.30;;;0.30;;
9459;SDS011;4768;42.664;23.240;2022-11-21T02:40:58;0.00;;;0.00;;
9459;SDS011;4768;42.664;23.240;2022-11-21T02:43:32;0.00;;;0.00;;
9459;SDS011;4768;42.664;23.240;2022-11-21T02:46:04;0.10;;;0.10;;
9459;SDS011;4768;42.664;23.240;2022-11-21T02:48:31;0.43;;;0.17;;
9459;SDS011;4768;42.664;23.240;2022-11-21T02:50:58;0.00;;;0.00;;
9459;SDS011;4768;42.664;23.240;2022-11-21T02:53:25;0.00;;;0.00;;
9459;SDS011;4768;42.664;23.240;2022-11-21T02:55:52;0.00;;;0.00;;
9459;SDS011;4768;42.664;23.240;2022-11-21T02:58:19;0.20;;;0.10;;
9459;SDS011;4768;42.664;23.240;2022-11-21T03:00:47;0.00;;;0.00;;
9459;SDS011;4768;42.664;23.240;2022-11-21T03:03:13;0.30;;;0.03;;
9459;SDS011;4768;42.664;23.240;2022-11-21T03:05:40;0.00;;;0.00;;
9459;SDS011;4768;42.664;23.240;2022-11-21T03:08:07;0.00;;;0.00;;
9459;SDS011;4768;42.664;23.240;2022-11-21T03:10:34;9.10;;;1.50;;
9459;SDS011;4768;42.664;23.240;2022-11-21T03:13:01;5.17;;;1.80;;
9459;SDS011;4768;42.664;23.240;2022-11-21T03:15:29;6.37;;;3.17;;
9459;SDS011;4768;42.664;23.240;2022-11-21T03:17:59;10.80;;;5.40;;
9459;SDS011;4768;42.664;23.240;2022-11-21T03:20:27;5.70;;;1.27;;
9459;SDS011;4768;42.664;23.240;2022-11-21T03:22:53;5.70;;;1.50;;
9459;SDS011;4768;42.664;23.240;2022-11-21T03:25:20;4.00;;;1.10;;
9459;SDS011;4768;42.664;23.240;2022-11-21T03:27:48;6.60;;;1.30;;
9459;SDS011;4768;42.664;23.240;2022-11-21T03:30:16;7.00;;;1.30;;
9459;SDS011;4768;42.664;23.240;2022-11-21T03:32:43;3.60;;;1.10;;
9459;SDS011;4768;42.664;23.240;2022-11-21T03:35:11;7.10;;;1.93;;
9459;SDS011;4768;42.664;23.240;2022-11-21T03:37:38;3.80;;;1.03;;
9459;SDS011;4768;42.664;23.240;2022-11-21T03:40:05;5.83;;;1.10;;
9459;SDS011;4768;42.664;23.240;2022-11-21T03:42:33;6.93;;;1.23;;
9459;SDS011;4768;42.664;23.240;2022-11-21T03:45:00;4.60;;;1.10;;
9459;SDS011;4768;42.664;23.240;2022-11-21T03:47:26;2.73;;;1.23;;
9459;SDS011;4768;42.664;23.240;2022-11-21T03:49:53;5.70;;;1.00;;
9459;SDS011;4768;42.664;23.240;2022-11-21T03:52:21;9.00;;;1.30;;
9459;SDS011;4768;42.664;23.240;2022-11-21T03:54:48;4.33;;;1.43;;
9459;SDS011;4768;42.664;23.240;2022-11-21T03:57:14;6.47;;;1.33;;
9459;SDS011;4768;42.664;23.240;2022-11-21T03:59:41;6.03;;;1.30;;
9459;SDS011;4768;42.664;23.240;2022-11-21T04:02:08;8.90;;;2.23;;
9459;SDS011;4768;42.664;23.240;2022-11-21T04:04:35;13.60;;;1.50;;
9459;SDS011;4768;42.664;23.240;2022-11-21T04:07:01;5.27;;;1.53;;
9459;SDS011;4768;42.664;23.240;2022-11-21T04:09:29;3.40;;;1.13;;
9459;SDS011;4768;42.664;23.240;2022-11-21T04:11:56;5.63;;;1.30;;
9459;SDS011;4768;42.664;23.240;2022-11-21T04:14:23;6.53;;;1.60;;
9459;SDS011;4768;42.664;23.240;2022-11-21T04:16:50;4.53;;;1.33;;
9459;SDS011;4768;42.664;23.240;2022-11-21T04:19:17;8.07;;;1.70;;
9459;SDS011;4768;42.664;23.240;2022-11-21T04:21:43;11.90;;;1.63;;
9459;SDS011;4768;42.664;23.240;2022-11-21T04:24:10;7.80;;;1.43;;
9459;SDS011;4768;42.664;23.240;2022-11-21T04:26:38;5.40;;;1.03;;
9459;SDS011;4768;42.664;23.240;2022-11-21T04:29:05;7.43;;;1.60;;
9459;SDS011;4768;42.664;23.240;2022-11-21T04:31:32;10.40;;;1.60;;
9459;SDS011;4768;42.664;23.240;2022-11-21T04:33:58;6.43;;;1.50;;
9459;SDS011;4768;42.664;23.240;2022-11-21T04:36:25;4.40;;;1.27;;
9459;SDS011;4768;42.664;23.240;2022-11-21T04:38:52;7.70;;;1.33;;
9459;SDS011;4768;42.664;23.240;2022-11-21T04:41:18;5.63;;;1.53;;
9459;SDS011;4768;42.664;23.240;2022-11-21T04:43:48;5.00;;;1.23;;
9459;SDS011;4768;42.664;23.240;2022-11-21T04:46:14;5.47;;;1.37;;
9459;SDS011;4768;42.664;23.240;2022-11-21T04:48:41;8.03;;;2.40;;
9459;SDS011;4768;42.664;23.240;2022-11-21T04:51:08;3.93;;;1.97;;
9459;SDS011;4768;42.664;23.240;2022-11-21T04:53:34;5.67;;;1.50;;
9459;SDS011;4768;42.664;23.240;2022-11-21T04:56:02;8.90;;;1.63;;
9459;SDS011;4768;42.664;23.240;2022-11-21T04:58:30;7.10;;;1.50;;
9459;SDS011;4768;42.664;23.240;2022-11-21T05:00:58;6.70;;;1.60;;
9459;SDS011;4768;42.664;23.240;2022-11-21T05:03:31;6.73;;;1.50;;
9459;SDS011;4768;42.664;23.240;2022-11-21T05:05:58;5.60;;;1.63;;
9459;SDS011;4768;42.664;23.240;2022-11-21T05:08:24;3.93;;;0.90;;
9459;SDS011;4768;42.664;23.240;2022-11-21T05:10:51;6.07;;;1.47;;
9459;SDS011;4768;42.664;23.240;2022-11-21T05:13:35;8.80;;;1.63;;
9459;SDS011;4768;42.664;23.240;2022-11-21T05:16:03;4.50;;;1.27;;
9459;SDS011;4768;42.664;23.240;2022-11-21T05:18:30;11.57;;;1.67;;
9459;SDS011;4768;42.664;23.240;2022-11-21T05:20:57;17.43;;;1.73;;
9459;SDS011;4768;42.664;23.240;2022-11-21T05:23:23;5.80;;;1.10;;
9459;SDS011;4768;42.664;23.240;2022-11-21T05:25:50;13.60;;;1.40;;
9459;SDS011;4768;42.664;23.240;2022-11-21T05:28:17;3.60;;;1.47;;
9459;SDS011;4768;42.664;23.240;2022-11-21T05:30:43;7.50;;;1.60;;
9459;SDS011;4768;42.664;23.240;2022-11-21T05:33:11;8.30;;;1.77;;
9459;SDS011;4768;42.664;23.240;2022-11-21T05:35:38;8.67;;;1.17;;
9459;SDS011;4768;42.664;23.240;2022-11-21T05:38:05;8.47;;;1.70;;
9459;SDS011;4768;42.664;23.240;2022-11-21T05:40:32;5.80;;;1.70;;
9459;SDS011;4768;42.664;23.240;2022-11-21T05:42:58;9.60;;;1.70;;
9459;SDS011;4768;42.664;23.240;2022-11-21T05:45:42;3.13;;;1.20;;
9459;SDS011;4768;42.664;23.240;2022-11-21T05:48:09;9.30;;;1.40;;
9459;SDS011;4768;42.664;23.240;2022-11-21T05:50:37;33.00;;;2.33;;
9459;SDS011;4768;42.664;23.240;2022-11-21T05:53:04;8.67;;;2.00;;
9459;SDS011;4768;42.664;23.240;2022-11-21T05:55:33;5.60;;;1.20;;
9459;SDS011;4768;42.664;23.240;2022-11-21T05:58:00;4.73;;;1.43;;
9459;SDS011;4768;42.664;23.240;2022-11-21T06:00:27;8.17;;;2.47;;
9459;SDS011;4768;42.664;23.240;2022-11-21T06:02:54;6.93;;;2.10;;
9459;SDS011;4768;42.664;23.240;2022-11-21T06:05:39;5.27;;;2.43;;
9459;SDS011;4768;42.664;23.240;2022-11-21T06:08:06;9.83;;;1.50;;
9459;SDS011;4768;42.664;23.240;2022-11-21T06:10:33;8.47;;;1.53;;
9459;SDS011;4768;42.664;23.240;2022-11-21T06:13:00;4.00;;;1.47;;
9459;SDS011;4768;42.664;23.240;2022-11-21T06:15:27;6.30;;;1.70;;
9459;SDS011;4768;42.664;23.240;2022-11-21T06:17:54;6.60;;;2.43;;
9459;SDS011;4768;42.664;23.240;2022-11-21T06:20:21;4.67;;;1.30;;
9459;SDS011;4768;42.664;23.240;2022-11-21T06:22:49;6.40;;;1.87;;
9459;SDS011;4768;42.664;23.240;2022-11-21T06:25:17;4.50;;;1.20;;
9459;SDS011;4768;42.664;23.240;2022-11-21T06:27:44;3.33;;;1.27;;
9459;SDS011;4768;42.664;23.240;2022-11-21T06:30:10;1.33;;;0.90;;
9459;SDS011;4768;42.664;23.240;2022-11-21T06:32:37;4.33;;;1.40;;
9459;SDS011;4768;42.664;23.240;2022-11-21T06:35:04;1.07;;;0.67;;
9459;SDS011;4768;42.664;23.240;2022-11-21T06:37:31;0.97;;;0.63;;
9459;SDS011;4768;42.664;23.240;2022-11-21T06:39:59;1.87;;;0.77;;
9459;SDS011;4768;42.664;23.240;2022-11-21T06:42:26;1.40;;;0.60;;
9459;SDS011;4768;42.664;23.240;2022-11-21T06:44:53;0.37;;;0.30;;
9459;SDS011;4768;42.664;23.240;2022-11-21T06:47:19;2.43;;;0.90;;
9459;SDS011;4768;42.664;23.240;2022-11-21T06:49:46;1.70;;;1.00;;
9459;SDS011;4768;42.664;23.240;2022-11-21T06:52:13;0.67;;;0.63;;
9459;SDS011;4768;42.664;23.240;2022-11-21T06:54:40;3.73;;;0.63;;
9459;SDS011;4768;42.664;23.240;2022-11-21T06:57:08;0.17;;;0.17;;
9459;SDS011;4768;42.664;23.240;2022-11-21T06:59:34;0.87;;;0.40;;
9459;SDS011;4768;42.664;23.240;2022-11-21T07:02:01;0.43;;;0.43;;
9459;SDS011;4768;42.664;23.240;2022-11-21T07:04:28;0.90;;;0.70;;
9459;SDS011;4768;42.664;23.240;2022-11-21T07:06:54;1.67;;;0.60;;
9459;SDS011;4768;42.664;23.240;2022-11-21T07:09:21;2.20;;;0.50;;
9459;SDS011;4768;42.664;23.240;2022-11-21T07:11:48;1.03;;;0.50;;
9459;SDS011;4768;42.664;23.240;2022-11-21T07:14:17;0.10;;;0.07;;
9459;SDS011;4768;42.664;23.240;2022-11-21T07:16:43;0.00;;;0.00;;
9459;SDS011;4768;42.664;23.240;2022-11-21T07:19:10;0.00;;;0.00;;
9459;SDS011;4768;42.664;23.240;2022-11-21T07:21:37;0.00;;;0.00;;
9459;SDS011;4768;42.664;23.240;2022-11-21T07:24:04;0.00;;;0.00;;
9459;SDS011;4768;42.664;23.240;2022-11-21T07:26:31;0.00;;;0.00;;
9459;SDS011;4768;42.664;23.240;2022-11-21T07:28:58;0.00;;;0.00;;
9459;SDS011;4768;42.664;23.240;2022-11-21T07:31:26;0.00;;;0.00;;
9459;SDS011;4768;42.664;23.240;2022-11-21T07:33:53;0.30;;;0.30;;
9459;SDS011;4768;42.664;23.240;2022-11-21T07:36:19;0.00;;;0.00;;
9459;SDS011;4768;42.664;23.240;2022-11-21T07:38:46;0.00;;;0.00;;
9459;SDS011;4768;42.664;23.240;2022-11-21T07:41:13;0.00;;;0.00;;
9459;SDS011;4768;42.664;23.240;2022-11-21T07:43:40;0.10;;;0.10;;
9459;SDS011;4768;42.664;23.240;2022-11-21T07:46:06;0.00;;;0.00;;
9459;SDS011;4768;42.664;23.240;2022-11-21T07:48:35;0.00;;;0.00;;
9459;SDS011;4768;42.664;23.240;2022-11-21T07:51:02;0.07;;;0.07;;
9459;SDS011;4768;42.664;23.240;2022-11-21T07:53:30;0.00;;;0.00;;
9459;SDS011;4768;42.664;23.240;2022-11-21T07:55:57;0.00;;;0.00;;
9459;SDS011;4768;42.664;23.240;2022-11-21T07:58:23;0.20;;;0.20;;
9459;SDS011;4768;42.664;23.240;2022-11-21T08:00:50;0.00;;;0.00;;
9459;SDS011;4768;42.664;23.240;2022-11-21T08:03:17;0.00;;;0.00;;
9459;SDS011;4768;42.664;23.240;2022-11-21T08:05:46;0.00;;;0.00;;
9459;SDS011;4768;42.664;23.240;2022-11-21T08:08:13;0.00;;;0.00;;
9459;SDS011;4768;42.664;23.240;2022-11-21T08:10:41;0.00;;;0.00;;
9459;SDS011;4768;42.664;23.240;2022-11-21T08:13:08;0.00;;;0.00;;
9459;SDS011;4768;42.664;23.240;2022-11-21T08:15:35;0.00;;;0.00;;
9459;SDS011;4768;42.664;23.240;2022-11-21T08:18:06;1.07;;;0.37;;
9459;SDS011;4768;42.664;23.240;2022-11-21T08:20:34;0.00;;;0.00;;
9459;SDS011;4768;42.664;23.240;2022-11-21T08:23:02;0.00;;;0.00;;
9459;SDS011;4768;42.664;23.240;2022-11-21T08:25:30;0.10;;;0.10;;
9459;SDS011;4768;42.664;23.240;2022-11-21T08:27:57;0.00;;;0.00;;
9459;SDS011;4768;42.664;23.240;2022-11-21T08:30:24;0.10;;;0.10;;
9459;SDS011;4768;42.664;23.240;2022-11-21T08:32:51;0.00;;;0.00;;
9459;SDS011;4768;42.664;23.240;2022-11-21T08:35:18;0.00;;;0.00;;
9459;SDS011;4768;42.664;23.240;2022-11-21T08:37:45;0.20;;;0.20;;
9459;SDS011;4768;42.664;23.240;2022-11-21T08:40:13;0.00;;;0.00;;
9459;SDS011;4768;42.664;23.240;2022-11-21T08:42:40;0.00;;;0.00;;
9459;SDS011;4768;42.664;23.240;2022-11-21T08:45:07;0.00;;;0.00;;
9459;SDS011;4768;42.664;23.240;2022-11-21T08:47:34;0.00;;;0.00;;
9459;SDS011;4768;42.664;23.240;2022-11-21T08:50:01;0.00;;;0.00;;
9459;SDS011;4768;42.664;23.240;2022-11-21T08:52:28;0.10;;;0.00;;
9459;SDS011;4768;42.664;23.240;2022-11-21T08:54:55;0.00;;;0.00;;
9459;SDS011;4768;42.664;23.240;2022-11-21T08:57:24;0.00;;;0.00;;
9459;SDS011;4768;42.664;23.240;2022-11-21T08:59:50;0.00;;;0.00;;
9459;SDS011;4768;42.664;23.240;2022-11-21T09:02:17;0.00;;;0.00;;
9459;SDS011;4768;42.664;23.240;2022-11-21T09:04:44;0.07;;;0.07;;
9459;SDS011;4768;42.664;23.240;2022-11-21T09:07:11;0.13;;;0.13;;
9459;SDS011;4768;42.664;23.240;2022-11-21T09:09:37;0.00;;;0.00;;
9459;SDS011;4768;42.664;23.240;2022-11-21T09:12:04;0.00;;;0.00;;
9459;SDS011;4768;42.664;23.240;2022-11-21T09:14:33;0.37;;;0.37;;
9459;SDS011;4768;42.664;23.240;2022-11-21T09:17:17;0.00;;;0.00;;
9459;SDS011;4768;42.664;23.240;2022-11-21T09:20:01;0.10;;;0.10;;
9459;SDS011;4768;42.664;23.240;2022-11-21T09:22:28;0.00;;;0.00;;
9459;SDS011;4768;42.664;23.240;2022-11-21T09:24:55;0.30;;;0.20;;
9459;SDS011;4768;42.664;23.240;2022-11-21T09:27:22;0.10;;;0.10;;
9459;SDS011;4768;42.664;23.240;2022-11-21T09:29:50;0.00;;;0.00;;
9459;SDS011;4768;42.664;23.240;2022-11-21T09:32:17;0.10;;;0.10;;
9459;SDS011;4768;42.664;23.240;2022-11-21T09:34:44;0.00;;;0.00;;
9459;SDS011;4768;42.664;23.240;2022-11-21T09:37:10;0.10;;;0.10;;
9459;SDS011;4768;42.664;23.240;2022-11-21T09:39:37;0.10;;;0.10;;
9459;SDS011;4768;42.664;23.240;2022-11-21T09:42:08;0.10;;;0.10;;
9459;SDS011;4768;42.664;23.240;2022-11-21T09:44:59;0.10;;;0.10;;
9459;SDS011;4768;42.664;23.240;2022-11-21T09:47:31;0.67;;;0.27;;
9459;SDS011;4768;42.664;23.240;2022-11-21T09:50:00;0.00;;;0.00;;
9459;SDS011;4768;42.664;23.240;2022-11-21T09:52:31;0.10;;;0.10;;
9459;SDS011;4768;42.664;23.240;2022-11-21T09:55:04;0.00;;;0.00;;
9459;SDS011;4768;42.664;23.240;2022-11-21T09:57:41;0.00;;;0.00;;
9459;SDS011;4768;42.664;23.240;2022-11-21T10:02:45;0.93;;;0.27;;
9459;SDS011;4768;42.664;23.240;2022-11-21T10:05:12;0.10;;;0.10;;
9459;SDS011;4768;42.664;23.240;2022-11-21T10:07:40;0.00;;;0.00;;
9459;SDS011;4768;42.664;23.240;2022-11-21T10:10:15;0.10;;;0.10;;
9459;SDS011;4768;42.664;23.240;2022-11-21T10:12:53;0.00;;;0.00;;
9459;SDS011;4768;42.664;23.240;2022-11-21T10:15:35;0.07;;;0.07;;
9459;SDS011;4768;42.664;23.240;2022-11-21T10:18:24;0.00;;;0.00;;
9459;SDS011;4768;42.664;23.240;2022-11-21T10:21:01;0.10;;;0.10;;
9459;SDS011;4768;42.664;23.240;2022-11-21T10:26:35;0.07;;;0.07;;
9459;SDS011;4768;42.664;23.240;2022-11-21T10:29:09;0.13;;;0.13;;
9459;SDS011;4768;42.664;23.240;2022-11-21T10:31:44;0.47;;;0.47;;
9459;SDS011;4768;42.664;23.240;2022-11-21T10:34:14;0.10;;;0.10;;
9459;SDS011;4768;42.664;23.240;2022-11-21T10:36:43;0.30;;;0.30;;
9459;SDS011;4768;42.664;23.240;2022-11-21T10:39:17;0.20;;;0.10;;
9459;SDS011;4768;42.664;23.240;2022-11-21T10:41:49;0.10;;;0.10;;
9459;SDS011;4768;42.664;23.240;2022-11-21T10:44:23;0.00;;;0.00;;
9459;SDS011;4768;42.664;23.240;2022-11-21T10:47:14;0.40;;;0.40;;
9459;SDS011;4768;42.664;23.240;2022-11-21T10:49:56;0.00;;;0.00;;
9459;SDS011;4768;42.664;23.240;2022-11-21T10:52:27;0.00;;;0.00;;
9459;SDS011;4768;42.664;23.240;2022-11-21T10:55:07;0.10;;;0.10;;
9459;SDS011;4768;42.664;23.240;2022-11-21T10:57:39;0.00;;;0.00;;
9459;SDS011;4768;42.664;23.240;2022-11-21T11:00:16;0.10;;;0.10;;
9459;SDS011;4768;42.664;23.240;2022-11-21T11:03:01;0.00;;;0.00;;
9459;SDS011;4768;42.664;23.240;2022-11-21T11:05:30;0.10;;;0.10;;
9459;SDS011;4768;42.664;23.240;2022-11-21T11:08:00;0.23;;;0.23;;
9459;SDS011;4768;42.664;23.240;2022-11-21T11:10:29;0.00;;;0.00;;
9459;SDS011;4768;42.664;23.240;2022-11-21T11:12:57;0.03;;;0.03;;
9459;SDS011;4768;42.664;23.240;2022-11-21T11:15:51;0.00;;;0.00;;
9459;SDS011;4768;42.664;23.240;2022-11-21T11:18:21;0.00;;;0.00;;
9459;SDS011;4768;42.664;23.240;2022-11-21T11:20:49;0.03;;;0.03;;
9459;SDS011;4768;42.664;23.240;2022-11-21T11:23:21;0.00;;;0.00;;
9459;SDS011;4768;42.664;23.240;2022-11-21T11:25:50;0.10;;;0.10;;
9459;SDS011;4768;42.664;23.240;2022-11-21T11:28:18;0.10;;;0.10;;
9459;SDS011;4768;42.664;23.240;2022-11-21T11:30:46;0.00;;;0.00;;
9459;SDS011;4768;42.664;23.240;2022-11-21T11:33:34;0.27;;;0.10;;
9459;SDS011;4768;42.664;23.240;2022-11-21T11:36:12;0.10;;;0.10;;
9459;SDS011;4768;42.664;23.240;2022-11-21T11:38:41;0.00;;;0.00;;
9459;SDS011;4768;42.664;23.240;2022-11-21T11:41:15;0.10;;;0.10;;
9459;SDS011;4768;42.664;23.240;2022-11-21T11:44:24;0.00;;;0.00;;
9459;SDS011;4768;42.664;23.240;2022-11-21T11:47:17;0.10;;;0.10;;
9459;SDS011;4768;42.664;23.240;2022-11-21T11:50:00;0.00;;;0.00;;
9459;SDS011;4768;42.664;23.240;2022-11-21T11:52:37;0.20;;;0.20;;
9459;SDS011;4768;42.664;23.240;2022-11-21T11:55:15;0.33;;;0.20;;
9459;SDS011;4768;42.664;23.240;2022-11-21T11:57:46;0.10;;;0.10;;
9459;SDS011;4768;42.664;23.240;2022-11-21T12:00:24;0.03;;;0.03;;
9459;SDS011;4768;42.664;23.240;2022-11-21T12:02:59;0.00;;;0.00;;
9459;SDS011;4768;42.664;23.240;2022-11-21T12:05:35;0.27;;;0.27;;
9459;SDS011;4768;42.664;23.240;2022-11-21T12:08:07;0.00;;;0.00;;
9459;SDS011;4768;42.664;23.240;2022-11-21T12:10:42;0.00;;;0.00;;
9459;SDS011;4768;42.664;23.240;2022-11-21T12:13:32;0.00;;;0.00;;
9459;SDS011;4768;42.664;23.240;2022-11-21T12:16:01;0.00;;;0.00;;
9459;SDS011;4768;42.664;23.240;2022-11-21T12:18:31;0.40;;;0.23;;
9459;SDS011;4768;42.664;23.240;2022-11-21T12:21:06;0.00;;;0.00;;
9459;SDS011;4768;42.664;23.240;2022-11-21T12:23:40;0.00;;;0.00;;
9459;SDS011;4768;42.664;23.240;2022-11-21T12:26:28;0.50;;;0.20;;
9459;SDS011;4768;42.664;23.240;2022-11-21T12:29:06;0.00;;;0.00;;
9459;SDS011;4768;42.664;23.240;2022-11-21T12:31:48;2.80;;;0.37;;
9459;SDS011;4768;42.664;23.240;2022-11-21T12:34:30;0.00;;;0.00;;
9459;SDS011;4768;42.664;23.240;2022-11-21T12:37:07;0.00;;;0.00;;
9459;SDS011;4768;42.664;23.240;2022-11-21T12:39:50;0.10;;;0.10;;
9459;SDS011;4768;42.664;23.240;2022-11-21T12:42:38;0.13;;;0.13;;
9459;SDS011;4768;42.664;23.240;2022-11-21T12:48:09;0.00;;;0.00;;
9459;SDS011;4768;42.664;23.240;2022-11-21T12:54:26;0.00;;;0.00;;
9459;SDS011;4768;42.664;23.240;2022-11-21T12:57:11;0.00;;;0.00;;
9459;SDS011;4768;42.664;23.240;2022-11-21T12:59:43;0.20;;;0.20;;
9459;SDS011;4768;42.664;23.240;2022-11-21T13:02:27;0.00;;;0.00;;
9459;SDS011;4768;42.664;23.240;2022-11-21T13:05:00;0.00;;;0.00;;
9459;SDS011;4768;42.664;23.240;2022-11-21T13:07:30;0.43;;;0.20;;
9459;SDS011;4768;42.664;23.240;2022-11-21T13:09:59;0.57;;;0.30;;
9459;SDS011;4768;42.664;23.240;2022-11-21T13:12:31;0.10;;;0.10;;
9459;SDS011;4768;42.664;23.240;2022-11-21T13:15:11;0.23;;;0.20;;
9459;SDS011;4768;42.664;23.240;2022-11-21T13:17:44;0.00;;;0.00;;
9459;SDS011;4768;42.664;23.240;2022-11-21T13:20:18;0.00;;;0.00;;
9459;SDS011;4768;42.664;23.240;2022-11-21T13:22:53;0.00;;;0.00;;
9459;SDS011;4768;42.664;23.240;2022-11-21T13:28:34;0.00;;;0.00;;
9459;SDS011;4768;42.664;23.240;2022-11-21T13:31:02;0.10;;;0.10;;
9459;SDS011;4768;42.664;23.240;2022-11-21T13:33:47;0.00;;;0.00;;
9459;SDS011;4768;42.664;23.240;2022-11-21T13:36:35;0.07;;;0.07;;
9459;SDS011;4768;42.664;23.240;2022-11-21T13:42:00;0.00;;;0.00;;
9459;SDS011;4768;42.664;23.240;2022-11-21T13:44:46;0.10;;;0.10;;
9459;SDS011;4768;42.664;23.240;2022-11-21T13:47:28;0.00;;;0.00;;
9459;SDS011;4768;42.664;23.240;2022-11-21T13:50:04;0.13;;;0.13;;
9459;SDS011;4768;42.664;23.240;2022-11-21T13:52:42;0.10;;;0.10;;
9459;SDS011;4768;42.664;23.240;2022-11-21T13:55:22;0.00;;;0.00;;
9459;SDS011;4768;42.664;23.240;2022-11-21T13:58:14;0.10;;;0.10;;
9459;SDS011;4768;42.664;23.240;2022-11-21T14:00:58;0.10;;;0.10;;
9459;SDS011;4768;42.664;23.240;2022-11-21T14:03:37;0.00;;;0.00;;
9459;SDS011;4768;42.664;23.240;2022-11-21T14:06:37;0.00;;;0.00;;
9459;SDS011;4768;42.664;23.240;2022-11-21T14:09:20;0.00;;;0.00;;
9459;SDS011;4768;42.664;23.240;2022-11-21T14:11:49;0.00;;;0.00;;
9459;SDS011;4768;42.664;23.240;2022-11-21T14:14:24;0.00;;;0.00;;
9459;SDS011;4768;42.664;23.240;2022-11-21T14:16:56;0.07;;;0.07;;
9459;SDS011;4768;42.664;23.240;2022-11-21T14:19:32;0.20;;;0.20;;
9459;SDS011;4768;42.664;23.240;2022-11-21T14:21:59;0.10;;;0.10;;
9459;SDS011;4768;42.664;23.240;2022-11-21T14:24:26;0.37;;;0.37;;
9459;SDS011;4768;42.664;23.240;2022-11-21T14:26:53;0.00;;;0.00;;
9459;SDS011;4768;42.664;23.240;2022-11-21T14:29:25;0.00;;;0.00;;
9459;SDS011;4768;42.664;23.240;2022-11-21T14:31:53;0.10;;;0.10;;
9459;SDS011;4768;42.664;23.240;2022-11-21T14:34:24;0.00;;;0.00;;
9459;SDS011;4768;42.664;23.240;2022-11-21T14:36:52;0.47;;;0.47;;
9459;SDS011;4768;42.664;23.240;2022-11-21T14:39:20;0.07;;;0.07;;
9459;SDS011;4768;42.664;23.240;2022-11-21T14:41:51;0.10;;;0.10;;
9459;SDS011;4768;42.664;23.240;2022-11-21T14:44:21;0.00;;;0.00;;
9459;SDS011;4768;42.664;23.240;2022-11-21T14:46:49;1.43;;;0.33;;
9459;SDS011;4768;42.664;23.240;2022-11-21T14:49:27;0.97;;;0.40;;
9459;SDS011;4768;42.664;23.240;2022-11-21T14:52:00;0.17;;;0.17;;
9459;SDS011;4768;42.664;23.240;2022-11-21T14:54:31;0.00;;;0.00;;
9459;SDS011;4768;42.664;23.240;2022-11-21T14:57:05;0.00;;;0.00;;
9459;SDS011;4768;42.664;23.240;2022-11-21T14:59:36;0.00;;;0.00;;
9459;SDS011;4768;42.664;23.240;2022-11-21T15:02:10;0.07;;;0.07;;
9459;SDS011;4768;42.664;23.240;2022-11-21T15:04:40;0.00;;;0.00;;
9459;SDS011;4768;42.664;23.240;2022-11-21T15:07:14;0.07;;;0.07;;
9459;SDS011;4768;42.664;23.240;2022-11-21T15:09:43;0.63;;;0.63;;
9459;SDS011;4768;42.664;23.240;2022-11-21T15:12:10;0.10;;;0.10;;
9459;SDS011;4768;42.664;23.240;2022-11-21T15:14:41;1.47;;;0.30;;
9459;SDS011;4768;42.664;23.240;2022-11-21T15:17:14;0.17;;;0.07;;
9459;SDS011;4768;42.664;23.240;2022-11-21T15:19:44;0.30;;;0.30;;
9459;SDS011;4768;42.664;23.240;2022-11-21T15:22:18;1.60;;;0.30;;
9459;SDS011;4768;42.664;23.240;2022-11-21T15:25:03;0.60;;;0.60;;
9459;SDS011;4768;42.664;23.240;2022-11-21T15:27:32;0.27;;;0.27;;
9459;SDS011;4768;42.664;23.240;2022-11-21T15:30:04;0.00;;;0.00;;
9459;SDS011;4768;42.664;23.240;2022-11-21T15:32:58;0.10;;;0.10;;
9459;SDS011;4768;42.664;23.240;2022-11-21T15:35:51;1.20;;;0.83;;
9459;SDS011;4768;42.664;23.240;2022-11-21T15:38:24;1.03;;;0.50;;